Time;durP1;ratioP1;P1;durP2;ratioP2;P2;SDS_P1;SDS_P2;PMS_P1;PMS_P2;Temp;Humidity;BMP_temperature;BMP_pressure;BME280_temperature;BME280_humidity;BME280_pressure;Samples;Min_cycle;Max_cycle;Signal;HPM_P1;HPM_P2
2022/11/26 00:02:24;;;;;;;151.97;63.77;;;7.80;99.90;;;;;;5070167;28;20291;-52
2022/11/26 00:04:53;;;;;;;333.03;97.53;;;7.80;99.90;;;;;;5070648;28;20606;-52
2022/11/26 00:07:25;;;;;;;77.20;40.20;;;7.70;99.90;;;;;;5070703;28;20679;-53
2022/11/26 00:09:53;;;;;;;253.23;79.77;;;7.80;99.90;;;;;;5070752;28;20212;-52
2022/11/26 00:12:23;;;;;;;364.00;108.50;;;7.80;99.90;;;;;;5070297;28;20291;-53
2022/11/26 00:14:52;;;;;;;386.63;127.20;;;7.70;99.90;;;;;;5069981;28;20213;-52
2022/11/26 00:17:22;;;;;;;224.23;59.53;;;7.80;99.90;;;;;;5070468;28;20212;-53
2022/11/26 00:19:50;;;;;;;298.07;99.17;;;7.80;99.90;;;;;;5065622;28;20347;-52
2022/11/26 00:22:23;;;;;;;176.73;40.80;;;7.80;99.90;;;;;;5072332;28;20291;-52
2022/11/26 00:24:53;;;;;;;640.50;185.03;;;7.80;99.90;;;;;;5071381;28;20295;-52
2022/11/26 00:27:22;;;;;;;216.37;41.30;;;7.80;99.90;;;;;;5085263;28;20677;-51
2022/11/26 00:29:50;;;;;;;370.40;95.97;;;7.70;99.90;;;;;;5090374;28;20296;-51
2022/11/26 00:32:21;;;;;;;514.43;150.00;;;7.70;99.90;;;;;;5089086;28;20291;-52
2022/11/26 00:34:49;;;;;;;433.93;97.13;;;7.70;99.90;;;;;;5088862;28;20231;-53
2022/11/26 00:37:21;;;;;;;306.53;73.53;;;7.70;99.90;;;;;;5085711;28;20760;-53
2022/11/26 00:39:49;;;;;;;202.10;63.27;;;7.60;99.90;;;;;;5088422;28;20705;-53
2022/11/26 00:42:18;;;;;;;264.00;54.30;;;7.60;99.90;;;;;;5089040;28;20299;-53
2022/11/26 00:44:46;;;;;;;172.13;60.27;;;7.70;99.90;;;;;;5090211;28;20231;-52
2022/11/26 00:47:14;;;;;;;193.77;58.23;;;7.70;99.90;;;;;;5089928;28;20287;-51
2022/11/26 00:49:44;;;;;;;204.50;62.63;;;7.60;99.90;;;;;;5089707;28;20235;-52
2022/11/26 00:52:24;;;;;;;130.20;42.20;;;7.70;99.90;;;;;;5089563;28;20299;-53
2022/11/26 00:54:52;;;;;;;176.87;54.07;;;7.60;99.90;;;;;;5089611;28;20203;-53
2022/11/26 00:57:20;;;;;;;232.83;64.37;;;7.60;99.90;;;;;;5087369;28;20208;-52
2022/11/26 00:59:48;;;;;;;506.37;126.80;;;7.60;99.90;;;;;;5089120;28;20348;-52
2022/11/26 01:02:16;;;;;;;204.63;54.73;;;7.70;99.90;;;;;;5089186;28;20218;-52
2022/11/26 01:04:46;;;;;;;153.97;47.47;;;7.70;99.90;;;;;;5089158;28;20695;-53
2022/11/26 01:07:14;;;;;;;437.70;118.93;;;7.70;99.90;;;;;;5088691;28;20220;-53
2022/11/26 01:09:46;;;;;;;180.03;33.17;;;7.70;99.90;;;;;;5089338;28;20585;-53
2022/11/26 01:12:15;;;;;;;740.33;190.50;;;7.70;99.90;;;;;;5081575;28;20220;-53
2022/11/26 01:14:43;;;;;;;424.47;65.47;;;7.70;99.90;;;;;;5068810;28;20291;-52
2022/11/26 01:17:12;;;;;;;768.73;157.90;;;7.60;99.90;;;;;;5069109;28;20597;-52
2022/11/26 01:19:40;;;;;;;304.40;50.97;;;7.60;99.90;;;;;;5068951;28;20292;-53
2022/11/26 01:22:19;;;;;;;400.77;99.50;;;7.60;99.90;;;;;;5068803;28;20300;-53
2022/11/26 01:24:48;;;;;;;308.97;67.63;;;7.60;99.90;;;;;;5069494;28;20291;-52
2022/11/26 01:27:19;;;;;;;218.23;49.80;;;7.60;99.90;;;;;;5061552;28;20923;-53
2022/11/26 01:29:47;;;;;;;485.23;65.40;;;7.60;99.90;;;;;;5069274;28;20205;-52
2022/11/26 01:32:15;;;;;;;366.83;111.97;;;7.50;99.90;;;;;;5068565;28;20319;-52
2022/11/26 01:34:43;;;;;;;298.90;75.93;;;7.50;99.90;;;;;;5069108;28;20211;-52
2022/11/26 01:37:14;;;;;;;406.47;110.60;;;7.40;99.90;;;;;;5068313;28;20256;-52
2022/11/26 01:39:42;;;;;;;315.93;82.47;;;7.40;99.90;;;;;;5068985;28;20205;-51
2022/11/26 01:42:24;;;;;;;301.80;97.97;;;7.40;99.90;;;;;;5068492;28;20296;-52
2022/11/26 01:44:52;;;;;;;340.23;98.50;;;7.40;99.90;;;;;;5068758;28;20676;-52
2022/11/26 01:47:23;;;;;;;363.40;80.40;;;7.40;99.90;;;;;;5069324;28;20201;-52
2022/11/26 01:50:28;;;;;;;288.27;84.70;;;7.40;99.90;;;;;;5068596;28;20209;-53
2022/11/26 01:53:01;;;;;;;143.33;33.30;;;7.30;99.90;;;;;;5068750;28;20226;-52
2022/11/26 01:55:35;;;;;;;226.40;33.73;;;7.30;99.90;;;;;;5068672;28;20244;-51
2022/11/26 01:58:05;;;;;;;209.10;51.70;;;7.40;99.90;;;;;;5069037;28;20320;-53
2022/11/26 02:00:33;;;;;;;222.20;43.53;;;7.30;99.90;;;;;;5069399;28;20251;-53
2022/11/26 02:03:03;;;;;;;353.63;85.57;;;7.30;99.90;;;;;;5068194;28;20300;-52
2022/11/26 02:05:39;;;;;;;316.23;73.10;;;7.30;99.90;;;;;;5068433;28;20277;-52
2022/11/26 02:08:10;;;;;;;121.07;39.47;;;7.30;99.90;;;;;;5068593;28;20219;-52
2022/11/26 02:10:38;;;;;;;510.47;98.43;;;7.30;99.90;;;;;;5068700;28;20296;-52
2022/11/26 02:13:07;;;;;;;194.63;49.60;;;7.20;99.90;;;;;;5068470;28;20725;-52
2022/11/26 02:15:42;;;;;;;302.47;66.10;;;7.20;99.90;;;;;;5068835;28;20260;-52
2022/11/26 02:18:10;;;;;;;224.13;43.90;;;7.20;99.90;;;;;;5068802;28;20579;-52
2022/11/26 02:20:52;;;;;;;154.53;41.97;;;7.20;99.90;;;;;;5059355;28;20212;-52
2022/11/26 02:23:57;;;;;;;329.73;43.23;;;7.20;99.90;;;;;;5068604;28;20211;-53
2022/11/26 02:27:07;;;;;;;341.23;55.20;;;7.10;99.90;;;;;;5056433;28;20224;-52
2022/11/26 02:30:00;;;;;;;268.87;58.93;;;7.10;99.90;;;;;;5069534;28;20243;-52
2022/11/26 02:32:33;;;;;;;215.87;30.97;;;7.10;99.90;;;;;;5067978;28;20284;-53
2022/11/26 02:35:06;;;;;;;188.87;54.43;;;7.10;99.90;;;;;;5066593;28;20293;-53
2022/11/26 02:37:37;;;;;;;1014.67;210.37;;;7.10;99.90;;;;;;5068597;28;20227;-52
2022/11/26 02:40:08;;;;;;;158.80;33.97;;;7.10;99.90;;;;;;5068877;28;20300;-51
2022/11/26 02:42:36;;;;;;;536.27;94.60;;;7.10;99.90;;;;;;5068061;28;20291;-51
2022/11/26 02:45:09;;;;;;;322.63;57.60;;;7.10;99.90;;;;;;5067948;28;20233;-53
2022/11/26 02:47:40;;;;;;;884.53;171.60;;;7.00;99.90;;;;;;5066755;28;20647;-52
2022/11/26 02:50:13;;;;;;;122.53;45.53;;;6.90;99.90;;;;;;5067752;28;20205;-53
2022/11/26 02:52:42;;;;;;;107.17;41.87;;;6.70;99.90;;;;;;5067890;28;20655;-53
2022/11/26 02:55:13;;;;;;;63.53;25.63;;;6.60;99.90;;;;;;5068720;28;20312;-52
2022/11/26 02:57:45;;;;;;;103.20;39.77;;;6.40;99.90;;;;;;5064464;28;20213;-51
2022/11/26 03:00:15;;;;;;;64.30;33.37;;;6.30;99.90;;;;;;5071891;28;20243;-52
2022/11/26 03:02:47;;;;;;;78.13;34.13;;;6.20;99.90;;;;;;5071345;28;20248;-51
2022/11/26 03:05:17;;;;;;;79.53;33.07;;;6.10;99.90;;;;;;5071251;28;20694;-52
2022/11/26 03:07:49;;;;;;;57.77;25.73;;;6.10;99.90;;;;;;5063223;28;20251;-52
2022/11/26 03:10:19;;;;;;;169.77;54.90;;;6.10;99.90;;;;;;5068039;28;20305;-53
2022/11/26 03:12:47;;;;;;;107.40;44.83;;;6.00;99.90;;;;;;5071592;28;20208;-52
2022/11/26 03:15:18;;;;;;;52.90;28.43;;;5.90;99.90;;;;;;5071785;28;20290;-51
2022/11/26 03:17:46;;;;;;;49.03;32.87;;;5.80;99.90;;;;;;5071545;28;20267;-52
2022/11/26 03:20:14;;;;;;;62.87;35.27;;;5.70;99.90;;;;;;5071041;28;20294;-52
2022/11/26 03:22:42;;;;;;;197.13;48.57;;;5.60;99.90;;;;;;5070980;28;20291;-51
2022/11/26 03:25:11;;;;;;;45.00;34.67;;;5.50;99.90;;;;;;5071618;28;20228;-52
2022/11/26 03:27:39;;;;;;;36.13;30.27;;;5.50;99.90;;;;;;5070881;28;20197;-52
2022/11/26 03:30:08;;;;;;;107.37;40.33;;;5.40;99.90;;;;;;5071728;28;20245;-52
2022/11/26 03:32:38;;;;;;;55.97;30.83;;;5.40;99.90;;;;;;5070635;28;20292;-53
2022/11/26 03:35:06;;;;;;;38.73;24.10;;;5.30;99.90;;;;;;5064756;28;20230;-52
2022/11/26 03:37:34;;;;;;;62.63;33.20;;;5.30;99.90;;;;;;5066336;28;20313;-52
2022/11/26 03:40:03;;;;;;;146.77;48.60;;;5.30;99.90;;;;;;5071045;28;20701;-52
2022/11/26 03:42:31;;;;;;;250.27;25.50;;;5.40;99.90;;;;;;5070455;28;20682;-51
2022/11/26 03:44:59;;;;;;;150.37;33.83;;;5.30;99.90;;;;;;5071287;28;20289;-52
2022/11/26 03:47:27;;;;;;;138.80;35.57;;;5.30;99.90;;;;;;5070961;28;20231;-52
2022/11/26 03:49:57;;;;;;;128.27;35.07;;;5.30;99.90;;;;;;5071059;28;20236;-53
2022/11/26 03:52:25;;;;;;;38.70;28.10;;;5.30;99.90;;;;;;5070329;28;20288;-52
2022/11/26 03:54:53;;;;;;;89.33;26.37;;;5.30;99.90;;;;;;5070930;28;20296;-53
2022/11/26 03:57:21;;;;;;;30.70;19.83;;;5.30;99.90;;;;;;5070780;28;20226;-53
2022/11/26 03:59:49;;;;;;;74.03;26.37;;;5.30;99.90;;;;;;5070575;28;20290;-52
2022/11/26 04:02:17;;;;;;;115.30;50.47;;;5.30;99.90;;;;;;5069945;28;20220;-52
2022/11/26 04:04:45;;;;;;;117.03;28.70;;;5.30;99.90;;;;;;5070182;28;20202;-52
2022/11/26 04:07:15;;;;;;;123.13;33.57;;;5.20;99.90;;;;;;5068490;28;20213;-53
2022/11/26 04:09:43;;;;;;;160.37;39.63;;;5.20;99.90;;;;;;5067880;28;20250;-53
2022/11/26 04:12:11;;;;;;;139.43;34.33;;;5.20;99.90;;;;;;5054006;28;20891;-53
2022/11/26 04:14:39;;;;;;;40.53;23.20;;;5.10;99.90;;;;;;5062980;28;20259;-52
2022/11/26 04:17:08;;;;;;;107.13;54.17;;;5.10;99.90;;;;;;5066177;28;20772;-53
2022/11/26 04:19:36;;;;;;;324.07;90.57;;;5.00;99.90;;;;;;5070666;28;20295;-52
2022/11/26 04:22:04;;;;;;;77.17;38.67;;;4.90;99.90;;;;;;5069492;28;20292;-52
2022/11/26 04:24:33;;;;;;;23.30;20.80;;;4.80;99.90;;;;;;5056481;28;20203;-52
2022/11/26 04:27:01;;;;;;;44.50;28.90;;;4.70;99.90;;;;;;5070312;28;20319;-51
2022/11/26 04:29:29;;;;;;;80.87;40.73;;;4.60;99.90;;;;;;5070427;28;20287;-53
2022/11/26 04:31:57;;;;;;;111.30;35.90;;;4.60;99.90;;;;;;5070157;28;20300;-52
2022/11/26 04:34:26;;;;;;;71.43;45.13;;;4.50;99.90;;;;;;5059695;28;20201;-52
2022/11/26 04:36:54;;;;;;;82.07;47.47;;;4.50;99.90;;;;;;5069834;28;20312;-53
2022/11/26 04:39:22;;;;;;;88.57;53.77;;;4.40;99.90;;;;;;5069987;28;20583;-52
2022/11/26 04:41:51;;;;;;;66.93;30.90;;;4.40;99.90;;;;;;5069187;28;20212;-52
2022/11/26 04:44:19;;;;;;;75.53;34.13;;;4.30;99.90;;;;;;5069771;28;20698;-52
2022/11/26 04:46:48;;;;;;;89.27;36.73;;;4.30;99.90;;;;;;5064713;28;20355;-52
2022/11/26 04:49:16;;;;;;;73.10;33.20;;;4.30;99.90;;;;;;5069945;28;20211;-52
2022/11/26 04:51:44;;;;;;;103.00;35.93;;;4.30;99.90;;;;;;5069239;28;20216;-53
2022/11/26 04:54:12;;;;;;;100.97;25.97;;;4.30;99.90;;;;;;5064731;28;20299;-52
2022/11/26 04:56:40;;;;;;;97.17;35.13;;;4.30;99.90;;;;;;5068405;28;20260;-52
2022/11/26 04:59:09;;;;;;;83.73;34.63;;;4.30;99.90;;;;;;5069854;28;20231;-52
2022/11/26 05:01:37;;;;;;;150.83;31.00;;;4.30;99.90;;;;;;5069858;28;20244;-52
2022/11/26 05:04:05;;;;;;;168.10;27.20;;;4.30;99.90;;;;;;5069367;28;20204;-53
2022/11/26 05:06:34;;;;;;;150.80;55.23;;;4.30;99.90;;;;;;5067939;28;20234;-53
2022/11/26 05:09:02;;;;;;;127.63;31.37;;;4.20;99.90;;;;;;5069878;28;20296;-52
2022/11/26 05:11:30;;;;;;;137.20;38.53;;;4.20;99.90;;;;;;5061802;28;20657;-53
2022/11/26 05:13:59;;;;;;;144.43;50.23;;;4.30;99.90;;;;;;5068796;28;20252;-53
2022/11/26 05:16:28;;;;;;;129.90;46.27;;;4.30;99.90;;;;;;5069664;28;20272;-52
2022/11/26 05:18:56;;;;;;;93.87;38.90;;;4.20;99.90;;;;;;5068862;28;20232;-51
2022/11/26 05:21:24;;;;;;;112.70;47.27;;;4.10;99.90;;;;;;5069296;28;20294;-51
2022/11/26 05:23:52;;;;;;;177.97;48.93;;;4.10;99.90;;;;;;5068178;28;20699;-52
2022/11/26 05:26:20;;;;;;;154.23;47.10;;;4.00;99.90;;;;;;5069129;28;20308;-53
2022/11/26 05:28:48;;;;;;;177.70;22.43;;;4.00;99.90;;;;;;5068992;28;20212;-52
2022/11/26 05:31:17;;;;;;;115.90;34.00;;;4.00;99.90;;;;;;5069222;28;20217;-52
2022/11/26 05:33:46;;;;;;;159.40;39.63;;;3.90;99.90;;;;;;5068559;28;20215;-52
2022/11/26 05:36:14;;;;;;;120.90;52.57;;;3.90;99.90;;;;;;5068507;28;20729;-52
2022/11/26 05:38:42;;;;;;;126.10;39.47;;;3.90;99.90;;;;;;5068913;28;20798;-52
2022/11/26 05:41:10;;;;;;;115.63;51.87;;;3.80;99.90;;;;;;5069188;28;20303;-52
2022/11/26 05:43:38;;;;;;;107.87;37.40;;;3.70;99.90;;;;;;5068514;28;20750;-53
2022/11/26 05:46:08;;;;;;;148.80;51.67;;;3.70;99.90;;;;;;5071472;28;20262;-52
2022/11/26 05:48:36;;;;;;;89.53;32.73;;;3.60;99.90;;;;;;5079559;28;20207;-53
2022/11/26 05:51:06;;;;;;;70.13;28.00;;;3.60;99.90;;;;;;5083424;28;20204;-52
2022/11/26 05:53:34;;;;;;;76.77;47.27;;;3.60;99.90;;;;;;5073200;28;20299;-52
2022/11/26 05:56:02;;;;;;;109.97;33.20;;;3.60;99.90;;;;;;5084702;28;20596;-52
2022/11/26 05:58:30;;;;;;;88.53;26.77;;;3.50;99.90;;;;;;5086164;28;20308;-51
2022/11/26 06:00:58;;;;;;;109.67;58.77;;;3.50;99.90;;;;;;5080418;28;20213;-52
2022/11/26 06:03:26;;;;;;;45.87;21.93;;;3.50;99.90;;;;;;5068645;28;20681;-52
2022/11/26 06:05:54;;;;;;;115.63;67.90;;;3.50;99.90;;;;;;5067768;28;20227;-52
2022/11/26 06:08:24;;;;;;;96.03;39.17;;;3.50;99.90;;;;;;5068474;28;20289;-53
2022/11/26 06:10:52;;;;;;;120.27;51.33;;;3.50;99.90;;;;;;5068512;28;20243;-53
2022/11/26 06:13:20;;;;;;;57.63;28.53;;;3.60;99.90;;;;;;5067859;28;20668;-52
2022/11/26 06:15:48;;;;;;;63.37;27.60;;;3.60;99.90;;;;;;5068675;28;20225;-51
2022/11/26 06:18:16;;;;;;;54.40;35.40;;;3.60;99.90;;;;;;5059259;28;20349;-53
2022/11/26 06:20:44;;;;;;;49.43;31.33;;;3.70;99.90;;;;;;5068786;28;20298;-53
2022/11/26 06:23:12;;;;;;;59.03;22.80;;;3.70;99.90;;;;;;5068380;28;20242;-53
2022/11/26 06:25:42;;;;;;;45.47;36.60;;;3.80;99.90;;;;;;5068447;28;20260;-53
2022/11/26 06:28:10;;;;;;;61.67;37.10;;;3.80;99.90;;;;;;5068944;28;20286;-52
2022/11/26 06:30:38;;;;;;;52.97;23.57;;;3.80;99.90;;;;;;5070698;28;20676;-51
2022/11/26 06:33:07;;;;;;;71.70;38.17;;;3.80;99.90;;;;;;5071704;28;20214;-53
2022/11/26 06:35:35;;;;;;;76.97;30.30;;;3.80;99.90;;;;;;5072404;28;20226;-52
2022/11/26 06:38:03;;;;;;;68.53;37.90;;;3.80;99.90;;;;;;5070100;28;20298;-53
2022/11/26 06:40:31;;;;;;;137.13;49.67;;;3.80;99.90;;;;;;5071539;28;20298;-53
2022/11/26 06:43:01;;;;;;;95.50;44.50;;;3.80;99.90;;;;;;5071236;28;20210;-52
2022/11/26 06:45:29;;;;;;;64.00;30.77;;;3.90;99.90;;;;;;5072614;28;20239;-51
2022/11/26 06:47:57;;;;;;;95.23;38.67;;;3.90;99.90;;;;;;5072323;28;20248;-52
2022/11/26 06:50:25;;;;;;;91.23;36.27;;;3.90;99.90;;;;;;5070404;28;20662;-53
2022/11/26 06:52:54;;;;;;;93.70;35.20;;;3.90;99.90;;;;;;5070975;28;20296;-52
2022/11/26 06:55:23;;;;;;;108.60;25.80;;;4.00;99.90;;;;;;5066850;28;20230;-53
2022/11/26 06:57:51;;;;;;;104.37;41.73;;;4.10;99.90;;;;;;5066397;28;20583;-52
2022/11/26 07:00:21;;;;;;;92.37;31.93;;;4.10;99.90;;;;;;5072572;28;20277;-53
2022/11/26 07:02:49;;;;;;;117.50;34.60;;;4.00;99.90;;;;;;5082849;28;20688;-52
2022/11/26 07:05:17;;;;;;;115.93;27.57;;;4.00;99.90;;;;;;5072589;28;20226;-52
2022/11/26 07:07:45;;;;;;;84.73;25.00;;;4.00;99.90;;;;;;5067331;28;20253;-51
2022/11/26 07:10:14;;;;;;;66.13;29.90;;;4.10;99.90;;;;;;5070064;28;20196;-52
2022/11/26 07:12:42;;;;;;;131.20;43.73;;;4.20;99.90;;;;;;5080236;28;20301;-52
2022/11/26 07:15:11;;;;;;;69.67;32.80;;;4.20;99.90;;;;;;5071870;28;20309;-53
2022/11/26 07:17:40;;;;;;;72.43;29.00;;;4.20;99.90;;;;;;5063423;28;20294;-53
2022/11/26 07:20:09;;;;;;;94.03;30.40;;;4.30;99.90;;;;;;5071474;28;20254;-51
2022/11/26 07:22:37;;;;;;;77.80;40.47;;;4.30;99.90;;;;;;5071262;28;20205;-52
2022/11/26 07:25:06;;;;;;;69.03;29.53;;;4.30;99.90;;;;;;5071379;28;20295;-52
2022/11/26 07:27:40;;;;;;;95.57;44.70;;;4.30;99.90;;;;;;5071689;28;20204;-53
2022/11/26 07:30:09;;;;;;;91.77;31.27;;;4.30;99.90;;;;;;5071629;28;20283;-52
2022/11/26 07:32:37;;;;;;;133.33;47.70;;;4.30;99.90;;;;;;5070639;28;20209;-53
2022/11/26 07:35:07;;;;;;;87.90;45.53;;;4.30;99.90;;;;;;5071237;28;20213;-53
2022/11/26 07:37:35;;;;;;;40.90;24.20;;;4.30;99.90;;;;;;5071132;28;20258;-53
2022/11/26 07:40:05;;;;;;;77.17;30.70;;;4.30;99.90;;;;;;5070395;28;20234;-54
2022/11/26 07:42:33;;;;;;;50.60;35.23;;;4.30;99.90;;;;;;5068181;28;20293;-52
2022/11/26 07:45:02;;;;;;;54.27;34.73;;;4.20;99.90;;;;;;5068807;28;20213;-53
2022/11/26 07:47:30;;;;;;;46.67;29.93;;;4.30;99.90;;;;;;5067779;28;20267;-51
2022/11/26 07:49:59;;;;;;;64.23;41.13;;;4.20;99.90;;;;;;5069487;28;20202;-52
2022/11/26 07:52:28;;;;;;;49.57;27.53;;;4.20;99.90;;;;;;5068976;28;20299;-53
2022/11/26 07:54:56;;;;;;;77.27;37.93;;;4.10;99.90;;;;;;5068315;28;20714;-53
2022/11/26 07:57:24;;;;;;;119.77;45.93;;;4.20;99.90;;;;;;5070318;28;20300;-52
2022/11/26 07:59:52;;;;;;;124.77;33.67;;;4.20;99.90;;;;;;5073425;28;20731;-53
2022/11/26 08:02:20;;;;;;;122.63;34.03;;;4.20;99.90;;;;;;5080681;28;20220;-53
2022/11/26 08:04:48;;;;;;;172.47;33.00;;;4.30;99.90;;;;;;5068318;28;20260;-51
2022/11/26 08:07:16;;;;;;;109.10;29.93;;;4.40;99.90;;;;;;5078249;28;20303;-52
2022/11/26 08:09:55;;;;;;;184.63;40.40;;;4.40;99.90;;;;;;5082376;28;20224;-53
2022/11/26 08:12:23;;;;;;;145.23;32.73;;;4.50;99.90;;;;;;5084376;28;20307;-52
2022/11/26 08:14:51;;;;;;;126.57;26.73;;;4.50;99.90;;;;;;5085991;28;20206;-53
2022/11/26 08:17:20;;;;;;;277.53;37.17;;;4.50;99.90;;;;;;5077755;28;20268;-53
2022/11/26 08:19:48;;;;;;;355.17;40.37;;;4.50;99.90;;;;;;5082440;28;20316;-53
2022/11/26 08:22:16;;;;;;;324.67;36.13;;;4.40;99.90;;;;;;5068965;28;20232;-52
2022/11/26 08:24:44;;;;;;;155.73;39.63;;;4.30;99.90;;;;;;5074834;28;20288;-52
2022/11/26 08:27:13;;;;;;;368.17;40.73;;;4.40;99.90;;;;;;5075356;28;20308;-53
2022/11/26 08:29:41;;;;;;;399.37;67.47;;;4.50;99.90;;;;;;5065704;28;20288;-53
2022/11/26 08:32:09;;;;;;;282.00;40.07;;;4.40;99.90;;;;;;5066121;28;20296;-53
2022/11/26 08:34:38;;;;;;;138.10;34.70;;;4.50;99.90;;;;;;5069413;28;20626;-53
2022/11/26 08:37:07;;;;;;;203.27;39.90;;;4.60;99.90;;;;;;5069016;28;20229;-52
2022/11/26 08:39:35;;;;;;;151.57;41.97;;;4.60;99.90;;;;;;5066785;28;20307;-53
2022/11/26 08:42:04;;;;;;;248.70;38.00;;;4.60;99.90;;;;;;5068837;28;20302;-52
2022/11/26 08:44:33;;;;;;;245.70;52.87;;;4.70;99.90;;;;;;5068678;28;20694;-53
2022/11/26 08:47:01;;;;;;;276.60;43.30;;;4.80;99.90;;;;;;5065662;28;20634;-53
2022/11/26 08:49:29;;;;;;;199.03;33.07;;;4.90;99.90;;;;;;5068877;28;20240;-53
2022/11/26 08:51:57;;;;;;;137.53;38.97;;;4.90;99.90;;;;;;5061386;28;21313;-53
2022/11/26 08:54:25;;;;;;;190.43;30.43;;;4.90;99.90;;;;;;5067312;28;20758;-52
2022/11/26 08:56:54;;;;;;;186.50;30.73;;;4.90;99.90;;;;;;5068767;28;20587;-53
2022/11/26 08:59:23;;;;;;;128.90;34.80;;;5.00;99.90;;;;;;5069331;28;20294;-52
2022/11/26 09:01:52;;;;;;;213.20;74.47;;;5.00;99.90;;;;;;5069507;28;20305;-51
2022/11/26 09:04:21;;;;;;;288.27;43.37;;;5.00;99.90;;;;;;5068806;28;20735;-52
2022/11/26 09:06:49;;;;;;;237.10;45.43;;;5.00;99.90;;;;;;5069468;28;20732;-53
2022/11/26 09:09:17;;;;;;;128.93;31.70;;;5.10;99.90;;;;;;5069178;28;20291;-52
2022/11/26 09:11:49;;;;;;;419.40;73.97;;;5.20;99.90;;;;;;5068031;28;20296;-53
2022/11/26 09:14:21;;;;;;;412.83;50.27;;;5.20;99.90;;;;;;5067464;28;20214;-53
2022/11/26 09:16:49;;;;;;;355.03;28.87;;;5.00;99.90;;;;;;5066560;28;20264;-51
2022/11/26 09:19:19;;;;;;;287.90;50.27;;;5.10;99.90;;;;;;5067639;28;20209;-53
2022/11/26 09:21:48;;;;;;;301.93;63.33;;;5.00;99.90;;;;;;5067615;28;20269;-52
2022/11/26 09:24:17;;;;;;;169.60;33.50;;;4.90;99.90;;;;;;5067467;28;20692;-52
2022/11/26 09:26:47;;;;;;;291.10;103.77;;;5.00;99.90;;;;;;5067008;28;20263;-52
2022/11/26 09:29:18;;;;;;;238.07;46.83;;;5.00;99.90;;;;;;5068059;28;20219;-53
2022/11/26 09:31:47;;;;;;;164.90;36.67;;;5.10;99.90;;;;;;5065272;28;20222;-52
2022/11/26 09:34:36;;;;;;;262.63;59.67;;;5.10;99.90;;;;;;5059927;28;20206;-52
2022/11/26 09:37:05;;;;;;;142.43;36.17;;;5.20;99.90;;;;;;5068889;28;20858;-52
2022/11/26 09:39:34;;;;;;;258.00;23.30;;;5.10;99.90;;;;;;5063598;28;20291;-52
2022/11/26 09:42:06;;;;;;;172.07;55.50;;;5.20;99.90;;;;;;5068584;28;20739;-52
2022/11/26 09:44:52;;;;;;;238.43;34.30;;;5.30;99.90;;;;;;5069160;28;20241;-51
2022/11/26 09:47:22;;;;;;;287.77;42.33;;;5.40;99.90;;;;;;5069201;28;20288;-52
2022/11/26 09:50:01;;;;;;;233.20;39.10;;;5.30;99.90;;;;;;5068979;28;20244;-52
2022/11/26 09:52:33;;;;;;;344.57;43.97;;;5.40;99.90;;;;;;5069915;28;20215;-52
2022/11/26 09:55:08;;;;;;;221.90;35.83;;;5.40;99.90;;;;;;5068250;28;20686;-53
2022/11/26 09:57:41;;;;;;;254.60;32.07;;;5.40;99.90;;;;;;5065115;28;20295;-53
2022/11/26 10:00:23;;;;;;;494.80;164.53;;;5.50;99.90;;;;;;5061487;28;20761;-52
2022/11/26 10:02:53;;;;;;;228.13;83.87;;;5.60;99.90;;;;;;5067036;28;20879;-53
2022/11/26 10:05:37;;;;;;;296.80;43.13;;;5.60;99.90;;;;;;5068557;28;20663;-53
2022/11/26 10:08:14;;;;;;;178.23;42.07;;;5.70;99.90;;;;;;5070110;28;20219;-52
2022/11/26 10:10:52;;;;;;;236.60;23.60;;;5.60;99.90;;;;;;5071643;28;20225;-52
2022/11/26 10:13:27;;;;;;;220.57;58.23;;;5.70;99.90;;;;;;5068835;28;20301;-51
2022/11/26 10:16:04;;;;;;;167.70;32.23;;;5.70;99.90;;;;;;5072327;28;20224;-52
2022/11/26 10:18:40;;;;;;;118.40;36.03;;;5.80;99.90;;;;;;5072436;28;20206;-53
2022/11/26 10:21:24;;;;;;;124.73;24.77;;;5.90;99.90;;;;;;5071894;28;20721;-52
2022/11/26 10:24:17;;;;;;;282.17;96.73;;;6.00;99.90;;;;;;5070669;28;20212;-53
2022/11/26 10:26:45;;;;;;;122.83;47.27;;;6.00;99.90;;;;;;5071675;28;20238;-53
2022/11/26 10:29:22;;;;;;;93.43;31.13;;;6.20;99.90;;;;;;5071711;28;20244;-53
2022/11/26 10:31:53;;;;;;;161.80;52.30;;;6.20;99.90;;;;;;5070650;28;20645;-52
2022/11/26 10:34:27;;;;;;;151.67;46.97;;;6.20;99.90;;;;;;5072170;28;20256;-51
2022/11/26 10:37:00;;;;;;;120.50;45.03;;;6.30;99.90;;;;;;5068273;28;20230;-52
2022/11/26 10:39:28;;;;;;;120.03;37.30;;;6.30;99.90;;;;;;5067723;28;20209;-52
2022/11/26 10:41:56;;;;;;;32.43;23.53;;;6.40;99.90;;;;;;5070461;28;20229;-52
2022/11/26 10:44:33;;;;;;;181.53;51.97;;;6.50;99.90;;;;;;5074776;28;20296;-52
2022/11/26 10:47:20;;;;;;;78.37;41.03;;;6.50;99.90;;;;;;5071828;28;20264;-53
2022/11/26 10:49:49;;;;;;;127.77;59.13;;;6.50;99.90;;;;;;5071907;28;20240;-52
2022/11/26 10:52:23;;;;;;;343.13;109.33;;;6.50;99.90;;;;;;5069256;28;20746;-52
2022/11/26 10:55:07;;;;;;;693.33;226.97;;;6.60;99.90;;;;;;5070931;28;20678;-53
2022/11/26 10:57:37;;;;;;;172.83;65.73;;;6.60;99.90;;;;;;5071682;28;20293;-52
2022/11/26 11:00:07;;;;;;;80.33;37.03;;;6.70;99.90;;;;;;5087523;28;20207;-52
2022/11/26 11:02:37;;;;;;;91.93;40.47;;;6.80;99.90;;;;;;5064721;28;20649;-53
2022/11/26 11:05:08;;;;;;;914.43;293.57;;;6.80;99.90;;;;;;5083359;28;20207;-53
2022/11/26 11:07:42;;;;;;;130.90;60.20;;;6.80;99.90;;;;;;5084777;28;20221;-53
2022/11/26 11:10:17;;;;;;;200.97;59.30;;;6.80;99.90;;;;;;5082020;28;20309;-53
2022/11/26 11:12:49;;;;;;;236.03;66.43;;;6.80;99.90;;;;;;5069387;28;20687;-53
2022/11/26 11:15:23;;;;;;;545.87;189.60;;;6.70;99.90;;;;;;5069962;28;20252;-53
2022/11/26 11:17:57;;;;;;;408.10;159.30;;;6.80;99.90;;;;;;5070404;28;20591;-52
2022/11/26 11:20:34;;;;;;;43.67;29.53;;;6.80;99.90;;;;;;5070382;28;20243;-52
2022/11/26 11:23:19;;;;;;;90.07;48.80;;;6.90;99.90;;;;;;5086021;28;20283;-52
2022/11/26 11:25:57;;;;;;;277.00;88.57;;;6.90;99.90;;;;;;5080027;28;20231;-53
2022/11/26 11:28:27;;;;;;;277.20;89.97;;;7.00;99.90;;;;;;5071087;28;20589;-52
2022/11/26 11:31:05;;;;;;;279.40;89.27;;;7.10;99.90;;;;;;5071408;28;20296;-53
2022/11/26 11:33:33;;;;;;;37.43;23.53;;;7.20;99.90;;;;;;5070684;28;20244;-53
2022/11/26 11:36:07;;;;;;;129.50;54.73;;;7.20;99.90;;;;;;5084764;28;20323;-53
2022/11/26 11:38:48;;;;;;;118.23;45.93;;;7.30;99.90;;;;;;5085339;28;20897;-52
2022/11/26 11:41:29;;;;;;;111.73;41.97;;;7.30;99.90;;;;;;5067631;28;20228;-52
2022/11/26 11:44:06;;;;;;;84.10;46.53;;;7.30;99.90;;;;;;5078920;28;20246;-53
2022/11/26 11:47:07;;;;;;;332.53;106.90;;;7.30;99.90;;;;;;5070945;28;20217;-52
2022/11/26 11:50:14;;;;;;;100.23;38.07;;;7.30;99.90;;;;;;5069286;28;20293;-51
2022/11/26 11:52:56;;;;;;;190.27;63.50;;;7.30;99.90;;;;;;5054072;28;20295;-53
2022/11/26 11:55:36;;;;;;;98.03;35.80;;;7.30;99.90;;;;;;5070643;28;20268;-52
2022/11/26 11:58:26;;;;;;;831.43;309.97;;;7.30;99.90;;;;;;5068335;28;20238;-52
2022/11/26 12:01:00;;;;;;;178.40;68.50;;;7.30;99.90;;;;;;5068432;28;20311;-51
2022/11/26 12:03:58;;;;;;;376.57;139.50;;;7.30;99.90;;;;;;5069635;28;20232;-53
2022/11/26 12:06:39;;;;;;;276.30;110.83;;;7.30;99.90;;;;;;5068130;28;20278;-53
2022/11/26 12:09:16;;;;;;;310.43;87.33;;;7.30;99.90;;;;;;5069195;28;20211;-52
2022/11/26 12:11:54;;;;;;;115.17;51.37;;;7.20;99.90;;;;;;5069189;28;20239;-53
2022/11/26 12:14:27;;;;;;;88.70;40.60;;;7.30;99.90;;;;;;5065044;28;20224;-52
2022/11/26 12:17:03;;;;;;;1946.07;406.67;;;7.50;99.90;;;;;;5069958;28;20221;-53
2022/11/26 12:19:39;;;;;;;218.83;69.73;;;7.60;99.90;;;;;;5070613;28;20227;-52
2022/11/26 12:22:15;;;;;;;205.90;73.87;;;7.50;99.90;;;;;;5064346;28;20396;-52
2022/11/26 12:24:47;;;;;;;153.70;52.23;;;7.60;99.90;;;;;;5069571;28;20649;-52
2022/11/26 12:27:27;;;;;;;265.37;87.67;;;7.50;99.90;;;;;;5069355;28;20698;-53
2022/11/26 12:29:59;;;;;;;181.73;74.63;;;7.50;99.90;;;;;;5069738;28;20291;-52
2022/11/26 12:32:33;;;;;;;88.30;34.67;;;7.50;99.90;;;;;;5069855;28;20247;-52
2022/11/26 12:35:06;;;;;;;738.13;249.57;;;7.50;99.90;;;;;;5069761;28;20204;-52
2022/11/26 12:37:40;;;;;;;142.70;54.70;;;7.50;99.90;;;;;;5069011;28;20201;-51
2022/11/26 12:40:22;;;;;;;205.60;71.90;;;7.60;99.90;;;;;;5068546;28;20297;-52
2022/11/26 12:42:58;;;;;;;386.00;119.77;;;7.60;99.90;;;;;;5060546;28;20221;-52
2022/11/26 12:45:41;;;;;;;313.70;120.23;;;7.60;99.90;;;;;;5067807;28;20248;-52
2022/11/26 12:48:21;;;;;;;263.33;90.90;;;7.60;99.90;;;;;;5067737;28;20212;-50
2022/11/26 12:50:55;;;;;;;650.50;231.13;;;7.60;99.90;;;;;;5068691;28;20304;-51